sensor_id;sensor_type;location;lat;lon;timestamp;P1;durP1;ratioP1;P2;durP2;ratioP2
21601;SDS011;10963;50.934;4.668;2023-07-28T00:01:46;5.13;;;2.70;;
21601;SDS011;10963;50.934;4.668;2023-07-28T00:04:12;4.63;;;2.30;;
21601;SDS011;10963;50.934;4.668;2023-07-28T00:06:38;2.80;;;2.00;;
21601;SDS011;10963;50.934;4.668;2023-07-28T00:09:06;4.83;;;2.47;;
21601;SDS011;10963;50.934;4.668;2023-07-28T00:11:34;3.37;;;2.10;;
21601;SDS011;10963;50.934;4.668;2023-07-28T00:13:59;3.63;;;2.27;;
21601;SDS011;10963;50.934;4.668;2023-07-28T00:16:25;3.73;;;2.43;;
21601;SDS011;10963;50.934;4.668;2023-07-28T00:18:51;3.33;;;2.40;;
21601;SDS011;10963;50.934;4.668;2023-07-28T00:21:19;5.17;;;2.30;;
21601;SDS011;10963;50.934;4.668;2023-07-28T00:23:47;3.30;;;2.43;;
21601;SDS011;10963;50.934;4.668;2023-07-28T00:26:12;3.70;;;2.47;;
21601;SDS011;10963;50.934;4.668;2023-07-28T00:28:40;5.50;;;2.83;;
21601;SDS011;10963;50.934;4.668;2023-07-28T00:31:08;2.60;;;2.20;;
21601;SDS011;10963;50.934;4.668;2023-07-28T00:33:37;5.00;;;3.03;;
21601;SDS011;10963;50.934;4.668;2023-07-28T00:36:07;3.20;;;2.20;;
21601;SDS011;10963;50.934;4.668;2023-07-28T00:38:33;6.00;;;2.50;;
21601;SDS011;10963;50.934;4.668;2023-07-28T00:40:59;2.77;;;2.03;;
21601;SDS011;10963;50.934;4.668;2023-07-28T00:43:27;4.47;;;2.70;;
21601;SDS011;10963;50.934;4.668;2023-07-28T00:45:53;6.80;;;3.30;;
21601;SDS011;10963;50.934;4.668;2023-07-28T00:48:19;5.50;;;2.70;;
21601;SDS011;10963;50.934;4.668;2023-07-28T00:50:45;4.80;;;2.87;;
21601;SDS011;10963;50.934;4.668;2023-07-28T00:53:16;4.10;;;2.93;;
21601;SDS011;10963;50.934;4.668;2023-07-28T00:55:44;4.27;;;2.70;;
21601;SDS011;10963;50.934;4.668;2023-07-28T00:58:13;3.40;;;2.60;;
21601;SDS011;10963;50.934;4.668;2023-07-28T01:00:39;3.80;;;2.53;;
21601;SDS011;10963;50.934;4.668;2023-07-28T01:03:07;5.10;;;2.80;;
21601;SDS011;10963;50.934;4.668;2023-07-28T01:06:20;3.57;;;2.27;;
21601;SDS011;10963;50.934;4.668;2023-07-28T01:11:03;8.00;;;2.63;;
21601;SDS011;10963;50.934;4.668;2023-07-28T01:13:29;4.10;;;3.23;;
21601;SDS011;10963;50.934;4.668;2023-07-28T01:15:57;5.63;;;2.83;;
21601;SDS011;10963;50.934;4.668;2023-07-28T01:18:26;5.37;;;2.83;;
21601;SDS011;10963;50.934;4.668;2023-07-28T01:20:52;4.07;;;2.83;;
21601;SDS011;10963;50.934;4.668;2023-07-28T01:28:35;4.90;;;3.07;;
21601;SDS011;10963;50.934;4.668;2023-07-28T01:31:06;4.53;;;2.77;;
21601;SDS011;10963;50.934;4.668;2023-07-28T01:33:37;5.83;;;2.87;;
21601;SDS011;10963;50.934;4.668;2023-07-28T01:36:02;6.43;;;3.20;;
21601;SDS011;10963;50.934;4.668;2023-07-28T01:38:28;4.80;;;3.20;;
21601;SDS011;10963;50.934;4.668;2023-07-28T01:40:54;6.63;;;3.50;;
21601;SDS011;10963;50.934;4.668;2023-07-28T01:43:22;5.57;;;3.43;;
21601;SDS011;10963;50.934;4.668;2023-07-28T01:45:50;9.17;;;3.50;;
21601;SDS011;10963;50.934;4.668;2023-07-28T01:48:16;6.40;;;3.33;;
21601;SDS011;10963;50.934;4.668;2023-07-28T01:50:46;10.37;;;3.90;;
21601;SDS011;10963;50.934;4.668;2023-07-28T01:53:12;7.57;;;4.30;;
21601;SDS011;10963;50.934;4.668;2023-07-28T01:55:38;7.93;;;4.07;;
21601;SDS011;10963;50.934;4.668;2023-07-28T01:58:06;8.63;;;4.07;;
21601;SDS011;10963;50.934;4.668;2023-07-28T02:00:32;10.07;;;3.90;;
21601;SDS011;10963;50.934;4.668;2023-07-28T02:03:02;10.40;;;3.73;;
21601;SDS011;10963;50.934;4.668;2023-07-28T02:05:30;8.50;;;4.03;;
21601;SDS011;10963;50.934;4.668;2023-07-28T02:07:56;7.77;;;3.87;;
21601;SDS011;10963;50.934;4.668;2023-07-28T02:10:25;11.37;;;4.43;;
21601;SDS011;10963;50.934;4.668;2023-07-28T02:12:56;8.47;;;4.20;;
21601;SDS011;10963;50.934;4.668;2023-07-28T02:15:22;8.73;;;3.87;;
21601;SDS011;10963;50.934;4.668;2023-07-28T02:17:50;7.27;;;4.23;;
21601;SDS011;10963;50.934;4.668;2023-07-28T02:20:15;6.97;;;4.40;;
21601;SDS011;10963;50.934;4.668;2023-07-28T02:22:46;7.63;;;3.97;;
21601;SDS011;10963;50.934;4.668;2023-07-28T02:25:14;7.70;;;3.87;;
21601;SDS011;10963;50.934;4.668;2023-07-28T02:27:39;7.83;;;4.03;;
21601;SDS011;10963;50.934;4.668;2023-07-28T02:30:06;6.50;;;4.27;;
21601;SDS011;10963;50.934;4.668;2023-07-28T02:32:39;6.27;;;3.53;;
21601;SDS011;10963;50.934;4.668;2023-07-28T02:35:04;8.03;;;4.10;;
21601;SDS011;10963;50.934;4.668;2023-07-28T02:37:33;7.47;;;3.90;;
21601;SDS011;10963;50.934;4.668;2023-07-28T02:39:59;7.77;;;4.00;;
21601;SDS011;10963;50.934;4.668;2023-07-28T02:42:26;10.50;;;4.30;;
21601;SDS011;10963;50.934;4.668;2023-07-28T02:44:52;9.43;;;3.67;;
21601;SDS011;10963;50.934;4.668;2023-07-28T02:47:18;8.03;;;3.97;;
21601;SDS011;10963;50.934;4.668;2023-07-28T02:49:44;6.47;;;3.80;;
21601;SDS011;10963;50.934;4.668;2023-07-28T02:52:10;10.80;;;4.43;;
21601;SDS011;10963;50.934;4.668;2023-07-28T02:54:36;8.50;;;3.87;;
21601;SDS011;10963;50.934;4.668;2023-07-28T02:57:04;8.23;;;4.53;;
21601;SDS011;10963;50.934;4.668;2023-07-28T02:59:30;7.37;;;3.80;;
21601;SDS011;10963;50.934;4.668;2023-07-28T03:01:58;8.23;;;3.93;;
21601;SDS011;10963;50.934;4.668;2023-07-28T03:04:24;7.17;;;4.00;;
21601;SDS011;10963;50.934;4.668;2023-07-28T03:06:52;9.13;;;4.10;;
21601;SDS011;10963;50.934;4.668;2023-07-28T03:09:21;10.97;;;4.37;;
21601;SDS011;10963;50.934;4.668;2023-07-28T03:11:51;7.83;;;3.87;;
21601;SDS011;10963;50.934;4.668;2023-07-28T03:14:17;7.57;;;4.13;;
21601;SDS011;10963;50.934;4.668;2023-07-28T03:16:45;7.80;;;3.80;;
21601;SDS011;10963;50.934;4.668;2023-07-28T03:19:13;8.70;;;4.03;;
21601;SDS011;10963;50.934;4.668;2023-07-28T03:21:39;5.77;;;3.93;;
21601;SDS011;10963;50.934;4.668;2023-07-28T03:24:06;8.30;;;4.13;;
21601;SDS011;10963;50.934;4.668;2023-07-28T03:26:32;10.90;;;4.80;;
21601;SDS011;10963;50.934;4.668;2023-07-28T03:28:58;12.00;;;4.17;;
21601;SDS011;10963;50.934;4.668;2023-07-28T03:31:24;8.17;;;4.03;;
21601;SDS011;10963;50.934;4.668;2023-07-28T03:33:52;9.90;;;4.23;;
21601;SDS011;10963;50.934;4.668;2023-07-28T03:36:17;9.30;;;4.30;;
21601;SDS011;10963;50.934;4.668;2023-07-28T03:38:44;11.53;;;4.87;;
21601;SDS011;10963;50.934;4.668;2023-07-28T03:41:13;8.00;;;4.30;;
21601;SDS011;10963;50.934;4.668;2023-07-28T03:43:41;10.83;;;4.20;;
21601;SDS011;10963;50.934;4.668;2023-07-28T03:46:07;11.10;;;4.50;;
21601;SDS011;10963;50.934;4.668;2023-07-28T03:48:33;8.93;;;3.77;;
21601;SDS011;10963;50.934;4.668;2023-07-28T03:51:01;6.23;;;3.53;;
21601;SDS011;10963;50.934;4.668;2023-07-28T03:53:26;6.43;;;3.63;;
21601;SDS011;10963;50.934;4.668;2023-07-28T03:55:52;7.60;;;4.10;;
21601;SDS011;10963;50.934;4.668;2023-07-28T03:58:22;6.20;;;3.70;;
21601;SDS011;10963;50.934;4.668;2023-07-28T04:00:51;6.43;;;4.17;;
21601;SDS011;10963;50.934;4.668;2023-07-28T04:03:20;5.53;;;3.83;;
21601;SDS011;10963;50.934;4.668;2023-07-28T04:05:46;7.07;;;3.90;;
21601;SDS011;10963;50.934;4.668;2023-07-28T04:08:14;6.27;;;3.60;;
21601;SDS011;10963;50.934;4.668;2023-07-28T04:10:42;6.10;;;3.53;;
21601;SDS011;10963;50.934;4.668;2023-07-28T04:13:08;5.37;;;3.20;;
21601;SDS011;10963;50.934;4.668;2023-07-28T04:15:40;7.53;;;3.60;;
21601;SDS011;10963;50.934;4.668;2023-07-28T04:18:05;9.13;;;3.20;;
21601;SDS011;10963;50.934;4.668;2023-07-28T04:20:36;8.10;;;3.30;;
21601;SDS011;10963;50.934;4.668;2023-07-28T04:23:03;8.67;;;3.00;;
21601;SDS011;10963;50.934;4.668;2023-07-28T04:25:29;6.27;;;3.50;;
21601;SDS011;10963;50.934;4.668;2023-07-28T04:27:55;6.50;;;3.10;;
21601;SDS011;10963;50.934;4.668;2023-07-28T04:30:23;5.50;;;3.00;;
21601;SDS011;10963;50.934;4.668;2023-07-28T04:32:51;3.77;;;2.90;;
21601;SDS011;10963;50.934;4.668;2023-07-28T04:35:17;4.73;;;3.20;;
21601;SDS011;10963;50.934;4.668;2023-07-28T04:37:45;9.60;;;2.60;;
21601;SDS011;10963;50.934;4.668;2023-07-28T04:40:14;3.80;;;2.50;;
21601;SDS011;10963;50.934;4.668;2023-07-28T04:42:42;4.83;;;3.10;;
21601;SDS011;10963;50.934;4.668;2023-07-28T04:45:08;6.63;;;2.87;;
21601;SDS011;10963;50.934;4.668;2023-07-28T04:47:34;5.70;;;3.20;;
21601;SDS011;10963;50.934;4.668;2023-07-28T04:50:00;7.73;;;3.10;;
21601;SDS011;10963;50.934;4.668;2023-07-28T04:52:28;6.47;;;3.00;;
21601;SDS011;10963;50.934;4.668;2023-07-28T04:54:55;4.50;;;3.07;;
21601;SDS011;10963;50.934;4.668;2023-07-28T04:57:23;5.00;;;2.50;;
21601;SDS011;10963;50.934;4.668;2023-07-28T04:59:49;3.90;;;2.53;;
21601;SDS011;10963;50.934;4.668;2023-07-28T05:02:19;4.17;;;2.77;;
21601;SDS011;10963;50.934;4.668;2023-07-28T05:04:45;8.73;;;2.73;;
21601;SDS011;10963;50.934;4.668;2023-07-28T05:07:11;7.20;;;3.13;;
21601;SDS011;10963;50.934;4.668;2023-07-28T05:09:39;3.97;;;3.03;;
21601;SDS011;10963;50.934;4.668;2023-07-28T05:12:04;4.77;;;2.40;;
21601;SDS011;10963;50.934;4.668;2023-07-28T05:14:33;3.63;;;2.03;;
21601;SDS011;10963;50.934;4.668;2023-07-28T05:16:58;6.57;;;2.80;;
21601;SDS011;10963;50.934;4.668;2023-07-28T05:19:26;4.97;;;2.77;;
21601;SDS011;10963;50.934;4.668;2023-07-28T05:21:52;7.30;;;2.53;;
21601;SDS011;10963;50.934;4.668;2023-07-28T05:24:22;5.90;;;2.50;;
21601;SDS011;10963;50.934;4.668;2023-07-28T05:26:50;3.90;;;2.70;;
21601;SDS011;10963;50.934;4.668;2023-07-28T05:29:21;4.03;;;2.10;;
21601;SDS011;10963;50.934;4.668;2023-07-28T05:31:46;3.27;;;2.37;;
21601;SDS011;10963;50.934;4.668;2023-07-28T05:34:14;5.00;;;2.40;;
21601;SDS011;10963;50.934;4.668;2023-07-28T05:36:40;3.13;;;2.10;;
21601;SDS011;10963;50.934;4.668;2023-07-28T05:39:06;4.27;;;2.23;;
21601;SDS011;10963;50.934;4.668;2023-07-28T05:41:31;7.57;;;2.33;;
21601;SDS011;10963;50.934;4.668;2023-07-28T05:43:57;4.00;;;1.80;;
21601;SDS011;10963;50.934;4.668;2023-07-28T05:46:25;6.00;;;1.80;;
21601;SDS011;10963;50.934;4.668;2023-07-28T05:48:53;1.83;;;1.30;;
21601;SDS011;10963;50.934;4.668;2023-07-28T05:51:20;2.10;;;1.17;;
21601;SDS011;10963;50.934;4.668;2023-07-28T05:53:46;1.20;;;1.10;;
21601;SDS011;10963;50.934;4.668;2023-07-28T05:56:12;1.10;;;1.00;;
21601;SDS011;10963;50.934;4.668;2023-07-28T05:58:38;1.00;;;0.90;;
21601;SDS011;10963;50.934;4.668;2023-07-28T06:01:06;1.80;;;1.30;;
21601;SDS011;10963;50.934;4.668;2023-07-28T06:03:32;0.90;;;0.90;;
21601;SDS011;10963;50.934;4.668;2023-07-28T06:05:58;1.50;;;0.87;;
21601;SDS011;10963;50.934;4.668;2023-07-28T06:08:24;1.47;;;0.90;;
21601;SDS011;10963;50.934;4.668;2023-07-28T06:10:49;2.00;;;1.03;;
21601;SDS011;10963;50.934;4.668;2023-07-28T06:13:15;4.13;;;0.97;;
21601;SDS011;10963;50.934;4.668;2023-07-28T06:15:41;1.00;;;0.90;;
21601;SDS011;10963;50.934;4.668;2023-07-28T06:18:07;1.00;;;0.83;;
21601;SDS011;10963;50.934;4.668;2023-07-28T06:20:33;3.57;;;1.10;;
21601;SDS011;10963;50.934;4.668;2023-07-28T06:23:00;1.60;;;1.20;;
21601;SDS011;10963;50.934;4.668;2023-07-28T06:25:28;0.90;;;0.90;;
21601;SDS011;10963;50.934;4.668;2023-07-28T06:27:54;2.50;;;0.90;;
21601;SDS011;10963;50.934;4.668;2023-07-28T06:30:21;4.80;;;0.80;;
21601;SDS011;10963;50.934;4.668;2023-07-28T06:32:49;0.70;;;0.70;;
21601;SDS011;10963;50.934;4.668;2023-07-28T06:35:16;0.60;;;0.60;;
21601;SDS011;10963;50.934;4.668;2023-07-28T06:37:44;1.47;;;0.57;;
21601;SDS011;10963;50.934;4.668;2023-07-28T06:40:14;1.53;;;0.40;;
21601;SDS011;10963;50.934;4.668;2023-07-28T06:42:40;1.43;;;0.50;;
21601;SDS011;10963;50.934;4.668;2023-07-28T06:45:06;0.40;;;0.40;;
21601;SDS011;10963;50.934;4.668;2023-07-28T06:47:34;0.40;;;0.40;;
21601;SDS011;10963;50.934;4.668;2023-07-28T06:50:03;0.40;;;0.40;;
21601;SDS011;10963;50.934;4.668;2023-07-28T06:52:30;0.60;;;0.60;;
21601;SDS011;10963;50.934;4.668;2023-07-28T06:54:56;0.53;;;0.40;;
21601;SDS011;10963;50.934;4.668;2023-07-28T06:57:22;1.83;;;0.67;;
21601;SDS011;10963;50.934;4.668;2023-07-28T06:59:52;0.80;;;0.80;;
21601;SDS011;10963;50.934;4.668;2023-07-28T07:02:20;0.60;;;0.60;;
21601;SDS011;10963;50.934;4.668;2023-07-28T07:04:46;1.10;;;0.90;;
21601;SDS011;10963;50.934;4.668;2023-07-28T07:07:12;1.10;;;0.93;;
21601;SDS011;10963;50.934;4.668;2023-07-28T07:09:43;0.90;;;0.70;;
21601;SDS011;10963;50.934;4.668;2023-07-28T07:12:10;1.87;;;1.30;;
21601;SDS011;10963;50.934;4.668;2023-07-28T07:14:36;2.57;;;0.90;;
21601;SDS011;10963;50.934;4.668;2023-07-28T07:17:04;0.97;;;0.83;;
21601;SDS011;10963;50.934;4.668;2023-07-28T07:19:30;1.83;;;0.70;;
21601;SDS011;10963;50.934;4.668;2023-07-28T07:21:55;0.60;;;0.60;;
21601;SDS011;10963;50.934;4.668;2023-07-28T07:24:21;1.17;;;0.73;;
21601;SDS011;10963;50.934;4.668;2023-07-28T07:26:50;0.83;;;0.70;;
21601;SDS011;10963;50.934;4.668;2023-07-28T07:29:18;0.80;;;0.60;;
21601;SDS011;10963;50.934;4.668;2023-07-28T07:31:46;0.50;;;0.50;;
21601;SDS011;10963;50.934;4.668;2023-07-28T07:34:19;0.40;;;0.40;;
21601;SDS011;10963;50.934;4.668;2023-07-28T07:36:48;2.77;;;0.50;;
21601;SDS011;10963;50.934;4.668;2023-07-28T07:39:13;0.60;;;0.60;;
21601;SDS011;10963;50.934;4.668;2023-07-28T07:41:42;0.50;;;0.50;;
21601;SDS011;10963;50.934;4.668;2023-07-28T07:44:07;1.30;;;0.77;;
21601;SDS011;10963;50.934;4.668;2023-07-28T07:46:33;1.17;;;0.63;;
21601;SDS011;10963;50.934;4.668;2023-07-28T07:49:04;0.60;;;0.60;;
21601;SDS011;10963;50.934;4.668;2023-07-28T07:51:30;0.83;;;0.60;;
21601;SDS011;10963;50.934;4.668;2023-07-28T07:54:00;0.67;;;0.50;;
21601;SDS011;10963;50.934;4.668;2023-07-28T07:56:29;0.60;;;0.60;;
21601;SDS011;10963;50.934;4.668;2023-07-28T07:58:56;2.47;;;0.60;;
21601;SDS011;10963;50.934;4.668;2023-07-28T08:01:25;0.50;;;0.50;;
21601;SDS011;10963;50.934;4.668;2023-07-28T08:03:53;1.60;;;0.80;;
21601;SDS011;10963;50.934;4.668;2023-07-28T08:06:19;0.85;;;0.40;;
21601;SDS011;10963;50.934;4.668;2023-07-28T08:08:45;1.02;;;0.50;;
21601;SDS011;10963;50.934;4.668;2023-07-28T08:11:10;1.67;;;0.67;;
21601;SDS011;10963;50.934;4.668;2023-07-28T08:13:41;0.60;;;0.60;;
21601;SDS011;10963;50.934;4.668;2023-07-28T08:16:10;0.80;;;0.80;;
21601;SDS011;10963;50.934;4.668;2023-07-28T08:18:38;0.93;;;0.60;;
21601;SDS011;10963;50.934;4.668;2023-07-28T08:21:04;0.63;;;0.50;;
21601;SDS011;10963;50.934;4.668;2023-07-28T08:23:32;1.43;;;0.50;;
21601;SDS011;10963;50.934;4.668;2023-07-28T08:25:57;0.40;;;0.30;;
21601;SDS011;10963;50.934;4.668;2023-07-28T08:28:25;1.07;;;0.60;;
21601;SDS011;10963;50.934;4.668;2023-07-28T08:30:57;2.10;;;0.60;;
21601;SDS011;10963;50.934;4.668;2023-07-28T08:33:23;0.80;;;0.80;;
21601;SDS011;10963;50.934;4.668;2023-07-28T08:35:52;1.90;;;0.70;;
21601;SDS011;10963;50.934;4.668;2023-07-28T08:38:20;1.03;;;0.80;;
21601;SDS011;10963;50.934;4.668;2023-07-28T08:40:45;1.07;;;0.73;;
21601;SDS011;10963;50.934;4.668;2023-07-28T08:43:16;1.10;;;0.70;;
21601;SDS011;10963;50.934;4.668;2023-07-28T08:45:44;1.40;;;0.90;;
21601;SDS011;10963;50.934;4.668;2023-07-28T08:48:10;1.40;;;1.20;;
21601;SDS011;10963;50.934;4.668;2023-07-28T08:50:36;2.03;;;0.93;;
21601;SDS011;10963;50.934;4.668;2023-07-28T08:53:02;0.90;;;0.90;;
21601;SDS011;10963;50.934;4.668;2023-07-28T08:55:32;2.90;;;1.30;;
21601;SDS011;10963;50.934;4.668;2023-07-28T08:58:16;2.33;;;1.13;;
21601;SDS011;10963;50.934;4.668;2023-07-28T09:00:48;4.17;;;1.30;;
21601;SDS011;10963;50.934;4.668;2023-07-28T09:03:15;4.73;;;1.20;;
21601;SDS011;10963;50.934;4.668;2023-07-28T09:05:44;1.20;;;1.10;;
21601;SDS011;10963;50.934;4.668;2023-07-28T09:08:16;2.33;;;1.10;;
21601;SDS011;10963;50.934;4.668;2023-07-28T09:10:46;2.37;;;1.20;;
21601;SDS011;10963;50.934;4.668;2023-07-28T09:13:15;1.73;;;1.10;;
21601;SDS011;10963;50.934;4.668;2023-07-28T09:15:42;1.70;;;1.00;;
21601;SDS011;10963;50.934;4.668;2023-07-28T09:18:25;1.07;;;0.97;;
21601;SDS011;10963;50.934;4.668;2023-07-28T09:20:53;1.90;;;0.90;;
21601;SDS011;10963;50.934;4.668;2023-07-28T09:23:24;1.83;;;1.10;;
21601;SDS011;10963;50.934;4.668;2023-07-28T09:25:58;1.33;;;1.03;;
21601;SDS011;10963;50.934;4.668;2023-07-28T09:28:44;0.80;;;0.80;;
21601;SDS011;10963;50.934;4.668;2023-07-28T09:31:10;2.80;;;1.03;;
21601;SDS011;10963;50.934;4.668;2023-07-28T09:33:39;6.73;;;1.10;;
21601;SDS011;10963;50.934;4.668;2023-07-28T09:36:09;5.40;;;1.00;;
21601;SDS011;10963;50.934;4.668;2023-07-28T09:38:36;2.83;;;1.13;;
21601;SDS011;10963;50.934;4.668;2023-07-28T09:41:04;2.50;;;1.10;;
21601;SDS011;10963;50.934;4.668;2023-07-28T09:43:37;2.50;;;0.87;;
21601;SDS011;10963;50.934;4.668;2023-07-28T09:46:10;2.03;;;0.70;;
21601;SDS011;10963;50.934;4.668;2023-07-28T09:48:39;1.23;;;0.70;;
21601;SDS011;10963;50.934;4.668;2023-07-28T09:51:15;0.80;;;0.80;;
21601;SDS011;10963;50.934;4.668;2023-07-28T09:53:49;0.60;;;0.60;;
21601;SDS011;10963;50.934;4.668;2023-07-28T09:56:26;1.13;;;0.80;;
21601;SDS011;10963;50.934;4.668;2023-07-28T09:58:58;2.20;;;0.90;;
21601;SDS011;10963;50.934;4.668;2023-07-28T10:01:26;2.13;;;0.80;;
21601;SDS011;10963;50.934;4.668;2023-07-28T10:03:54;1.10;;;0.70;;
21601;SDS011;10963;50.934;4.668;2023-07-28T10:06:20;3.47;;;0.60;;
21601;SDS011;10963;50.934;4.668;2023-07-28T10:08:49;1.53;;;0.70;;
21601;SDS011;10963;50.934;4.668;2023-07-28T10:11:17;0.93;;;0.70;;
21601;SDS011;10963;50.934;4.668;2023-07-28T10:13:46;1.43;;;0.60;;
21601;SDS011;10963;50.934;4.668;2023-07-28T10:16:16;0.60;;;0.60;;
21601;SDS011;10963;50.934;4.668;2023-07-28T10:18:51;0.70;;;0.40;;
21601;SDS011;10963;50.934;4.668;2023-07-28T10:21:20;2.73;;;0.50;;
21601;SDS011;10963;50.934;4.668;2023-07-28T10:23:54;1.47;;;0.40;;
21601;SDS011;10963;50.934;4.668;2023-07-28T10:26:38;0.40;;;0.40;;
21601;SDS011;10963;50.934;4.668;2023-07-28T10:29:13;0.43;;;0.43;;
21601;SDS011;10963;50.934;4.668;2023-07-28T10:31:51;1.83;;;0.57;;
21601;SDS011;10963;50.934;4.668;2023-07-28T10:34:18;0.30;;;0.30;;
21601;SDS011;10963;50.934;4.668;2023-07-28T10:36:44;0.70;;;0.50;;
21601;SDS011;10963;50.934;4.668;2023-07-28T10:39:20;2.28;;;1.05;;
21601;SDS011;10963;50.934;4.668;2023-07-28T10:42:03;1.03;;;0.70;;
21601;SDS011;10963;50.934;4.668;2023-07-28T10:44:30;2.47;;;0.80;;
21601;SDS011;10963;50.934;4.668;2023-07-28T10:46:56;1.42;;;0.80;;
21601;SDS011;10963;50.934;4.668;2023-07-28T10:49:23;0.63;;;0.60;;
21601;SDS011;10963;50.934;4.668;2023-07-28T10:51:52;1.08;;;0.98;;
21601;SDS011;10963;50.934;4.668;2023-07-28T10:54:20;2.25;;;1.08;;
21601;SDS011;10963;50.934;4.668;2023-07-28T10:56:47;1.83;;;1.23;;
21601;SDS011;10963;50.934;4.668;2023-07-28T10:59:13;1.92;;;1.20;;
21601;SDS011;10963;50.934;4.668;2023-07-28T11:01:42;4.05;;;1.80;;
21601;SDS011;10963;50.934;4.668;2023-07-28T11:04:15;2.50;;;1.58;;
21601;SDS011;10963;50.934;4.668;2023-07-28T11:06:48;3.28;;;1.67;;
21601;SDS011;10963;50.934;4.668;2023-07-28T11:09:18;2.40;;;1.35;;
21601;SDS011;10963;50.934;4.668;2023-07-28T11:11:49;1.90;;;1.70;;
21601;SDS011;10963;50.934;4.668;2023-07-28T11:14:18;2.53;;;2.15;;
21601;SDS011;10963;50.934;4.668;2023-07-28T11:16:45;1.60;;;1.50;;
21601;SDS011;10963;50.934;4.668;2023-07-28T11:19:13;2.30;;;1.88;;
21601;SDS011;10963;50.934;4.668;2023-07-28T11:21:39;2.40;;;2.20;;
21601;SDS011;10963;50.934;4.668;2023-07-28T11:24:09;3.13;;;2.17;;
21601;SDS011;10963;50.934;4.668;2023-07-28T11:26:42;2.72;;;2.05;;
21601;SDS011;10963;50.934;4.668;2023-07-28T11:29:11;2.20;;;2.00;;
21601;SDS011;10963;50.934;4.668;2023-07-28T11:31:37;2.20;;;2.03;;
21601;SDS011;10963;50.934;4.668;2023-07-28T11:34:12;2.20;;;1.98;;
21601;SDS011;10963;50.934;4.668;2023-07-28T11:36:41;4.05;;;2.38;;
21601;SDS011;10963;50.934;4.668;2023-07-28T11:39:07;2.58;;;2.35;;
21601;SDS011;10963;50.934;4.668;2023-07-28T11:41:36;5.05;;;2.50;;
21601;SDS011;10963;50.934;4.668;2023-07-28T11:44:06;4.30;;;2.45;;
21601;SDS011;10963;50.934;4.668;2023-07-28T11:49:11;6.13;;;3.00;;
21601;SDS011;10963;50.934;4.668;2023-07-28T11:51:43;4.28;;;3.22;;
21601;SDS011;10963;50.934;4.668;2023-07-28T11:54:13;4.38;;;3.40;;
21601;SDS011;10963;50.934;4.668;2023-07-28T11:56:44;3.65;;;2.70;;
21601;SDS011;10963;50.934;4.668;2023-07-28T11:59:17;4.68;;;3.05;;
21601;SDS011;10963;50.934;4.668;2023-07-28T12:01:51;6.50;;;3.42;;
21601;SDS011;10963;50.934;4.668;2023-07-28T12:04:21;3.80;;;3.13;;
21601;SDS011;10963;50.934;4.668;2023-07-28T12:09:31;4.25;;;2.72;;
21601;SDS011;10963;50.934;4.668;2023-07-28T12:11:58;3.30;;;3.00;;
21601;SDS011;10963;50.934;4.668;2023-07-28T12:14:34;2.67;;;2.47;;
21601;SDS011;10963;50.934;4.668;2023-07-28T12:17:00;3.47;;;2.70;;
21601;SDS011;10963;50.934;4.668;2023-07-28T12:19:27;3.95;;;2.75;;
21601;SDS011;10963;50.934;4.668;2023-07-28T12:21:56;2.40;;;2.20;;
21601;SDS011;10963;50.934;4.668;2023-07-28T12:24:21;2.50;;;2.30;;
21601;SDS011;10963;50.934;4.668;2023-07-28T12:26:48;5.03;;;2.53;;
21601;SDS011;10963;50.934;4.668;2023-07-28T12:29:16;4.35;;;2.72;;
21601;SDS011;10963;50.934;4.668;2023-07-28T12:31:41;4.05;;;2.67;;
21601;SDS011;10963;50.934;4.668;2023-07-28T12:34:07;3.33;;;2.40;;
21601;SDS011;10963;50.934;4.668;2023-07-28T12:36:33;20.17;;;7.05;;
21601;SDS011;10963;50.934;4.668;2023-07-28T12:39:01;44.67;;;12.98;;
21601;SDS011;10963;50.934;4.668;2023-07-28T12:41:30;36.20;;;9.70;;
21601;SDS011;10963;50.934;4.668;2023-07-28T12:43:59;23.98;;;8.50;;
21601;SDS011;10963;50.934;4.668;2023-07-28T12:46:24;9.65;;;4.63;;
21601;SDS011;10963;50.934;4.668;2023-07-28T12:48:52;12.60;;;4.45;;
21601;SDS011;10963;50.934;4.668;2023-07-28T12:51:20;6.43;;;2.85;;
21601;SDS011;10963;50.934;4.668;2023-07-28T12:53:46;6.82;;;2.40;;
21601;SDS011;10963;50.934;4.668;2023-07-28T12:56:11;5.40;;;2.33;;
21601;SDS011;10963;50.934;4.668;2023-07-28T12:58:40;4.18;;;1.83;;
21601;SDS011;10963;50.934;4.668;2023-07-28T13:01:05;2.00;;;1.80;;
21601;SDS011;10963;50.934;4.668;2023-07-28T13:03:32;2.20;;;2.00;;
21601;SDS011;10963;50.934;4.668;2023-07-28T13:05:58;2.28;;;2.08;;
21601;SDS011;10963;50.934;4.668;2023-07-28T13:08:37;2.40;;;2.20;;
21601;SDS011;10963;50.934;4.668;2023-07-28T13:11:15;5.53;;;3.00;;
21601;SDS011;10963;50.934;4.668;2023-07-28T13:13:41;4.03;;;2.55;;
21601;SDS011;10963;50.934;4.668;2023-07-28T13:16:07;5.03;;;2.38;;
21601;SDS011;10963;50.934;4.668;2023-07-28T13:18:35;4.18;;;2.45;;
21601;SDS011;10963;50.934;4.668;2023-07-28T13:21:05;4.38;;;2.20;;
21601;SDS011;10963;50.934;4.668;2023-07-28T13:23:36;3.15;;;2.40;;
21601;SDS011;10963;50.934;4.668;2023-07-28T13:26:02;3.65;;;2.05;;
21601;SDS011;10963;50.934;4.668;2023-07-28T13:28:33;2.67;;;1.65;;
21601;SDS011;10963;50.934;4.668;2023-07-28T13:31:01;1.60;;;1.42;;
21601;SDS011;10963;50.934;4.668;2023-07-28T13:33:28;3.53;;;1.60;;
21601;SDS011;10963;50.934;4.668;2023-07-28T13:35:56;1.83;;;1.52;;
21601;SDS011;10963;50.934;4.668;2023-07-28T13:38:22;4.07;;;1.67;;
21601;SDS011;10963;50.934;4.668;2023-07-28T13:40:50;3.58;;;1.60;;
21601;SDS011;10963;50.934;4.668;2023-07-28T13:43:15;2.03;;;1.40;;
21601;SDS011;10963;50.934;4.668;2023-07-28T13:45:41;2.30;;;1.70;;
21601;SDS011;10963;50.934;4.668;2023-07-28T13:48:09;2.17;;;1.98;;
21601;SDS011;10963;50.934;4.668;2023-07-28T13:50:37;3.20;;;1.60;;
21601;SDS011;10963;50.934;4.668;2023-07-28T13:53:02;2.60;;;1.45;;
21601;SDS011;10963;50.934;4.668;2023-07-28T13:55:28;3.97;;;1.75;;
21601;SDS011;10963;50.934;4.668;2023-07-28T13:57:58;3.20;;;1.52;;
21601;SDS011;10963;50.934;4.668;2023-07-28T14:00:26;2.72;;;1.60;;
21601;SDS011;10963;50.934;4.668;2023-07-28T14:02:52;3.58;;;1.73;;
21601;SDS011;10963;50.934;4.668;2023-07-28T14:05:18;1.58;;;1.48;;
21601;SDS011;10963;50.934;4.668;2023-07-28T14:07:44;2.35;;;1.20;;
21601;SDS011;10963;50.934;4.668;2023-07-28T14:10:12;2.63;;;1.35;;
21601;SDS011;10963;50.934;4.668;2023-07-28T14:12:40;1.52;;;1.42;;
21601;SDS011;10963;50.934;4.668;2023-07-28T14:15:06;1.85;;;1.40;;
21601;SDS011;10963;50.934;4.668;2023-07-28T14:17:33;1.98;;;1.25;;
21601;SDS011;10963;50.934;4.668;2023-07-28T14:19:59;1.55;;;1.33;;
21601;SDS011;10963;50.934;4.668;2023-07-28T14:22:24;1.30;;;1.20;;
21601;SDS011;10963;50.934;4.668;2023-07-28T14:24:50;1.40;;;1.25;;
21601;SDS011;10963;50.934;4.668;2023-07-28T14:27:16;4.70;;;1.60;;
21601;SDS011;10963;50.934;4.668;2023-07-28T14:29:44;1.08;;;0.98;;
21601;SDS011;10963;50.934;4.668;2023-07-28T14:32:10;1.83;;;1.20;;
21601;SDS011;10963;50.934;4.668;2023-07-28T14:34:35;2.55;;;1.42;;
21601;SDS011;10963;50.934;4.668;2023-07-28T14:37:04;1.08;;;0.98;;
21601;SDS011;10963;50.934;4.668;2023-07-28T14:39:33;1.83;;;1.38;;
21601;SDS011;10963;50.934;4.668;2023-07-28T14:41:59;1.90;;;1.27;;
21601;SDS011;10963;50.934;4.668;2023-07-28T14:44:25;1.55;;;1.15;;
21601;SDS011;10963;50.934;4.668;2023-07-28T14:46:53;1.50;;;1.20;;
21601;SDS011;10963;50.934;4.668;2023-07-28T14:49:21;1.77;;;1.30;;
21601;SDS011;10963;50.934;4.668;2023-07-28T14:51:53;1.90;;;0.95;;
21601;SDS011;10963;50.934;4.668;2023-07-28T14:54:21;0.85;;;0.82;;
21601;SDS011;10963;50.934;4.668;2023-07-28T14:56:47;1.05;;;0.90;;
21601;SDS011;10963;50.934;4.668;2023-07-28T14:59:17;4.20;;;1.45;;
21601;SDS011;10963;50.934;4.668;2023-07-28T15:01:43;1.25;;;1.10;;
21601;SDS011;10963;50.934;4.668;2023-07-28T15:04:09;2.85;;;1.17;;
21601;SDS011;10963;50.934;4.668;2023-07-28T15:06:36;1.23;;;0.90;;